Hauptseite
METAR-TAF:

METAR-TAF

Flughäfen :

Charles B. Wheeler Downtown Airport

Kansas City, Missouri, Vereinigte Staaten

Breite: 39-07-15N, Länge: 094-35-49W, Höhe: 231 m

Beobachtung

Neuester Wetterbericht von vor 20 Minuten, um 09:54 UTC
Windstille
Temperatur 22°C
Luftfeuchtigkeit 83%
Luftdruck 1017 hPa
Sichtweite: 16.1 km
Himmel klar

METAR: KMKC 180954Z 00000KT 10SM CLR 22/19 A3004 RMK AO2 SLP166 T02220194

Zeit: 05:14 (10:14 UTC)

Prognose

Neuester Wetterbericht von vor 4 Stunden und 54 Minuten, um 05:20 UTC
Gültige Prognose vom 18 um 06 UTC bis 19 um 06 UTC
Wind 6 kt aus Nord/Nordwest
Sichtweite: 10 km
Leicht bewölkt in der Höhe von 25000 ft

TAF: KMKC 180520Z 1806/1906 33006KT P6SM FEW250

Wetterbeobachtungen und Prognosen von mehr als 4000 Flughäfen (METAR und TAF Bericht).

Die verfügbaren Stationen werden durch gelbe und rote Markierungen auf der Karte dargestellt.

Führen Sie die Maus auf sie, um den Namen der Station zu sehen.

Darauf klicken, um die Beobachtung von Wetterbeobachtungen und Prognosen zu sehen.

Um die Karte zu ändern : klicken Sie auf den grünen Tasten mit einem schwarzen Kreuz Zum Vergrößern, auf den grünen Button mit einem Gedankenstrich zu verkleinern, oder auf die grünen Pfeile für benachbarte Karten.


METAR-TAF: